sensor_id;sensor_type;location;lat;lon;timestamp;P1;durP1;ratioP1;P2;durP2;ratioP2
8098;SDS011;4092;47.876;9.372;2023-06-10T00:02:20;5.70;;;4.13;;
8098;SDS011;4092;47.876;9.372;2023-06-10T00:04:47;5.50;;;4.30;;
8098;SDS011;4092;47.876;9.372;2023-06-10T00:07:16;6.83;;;4.53;;
8098;SDS011;4092;47.876;9.372;2023-06-10T00:09:45;6.13;;;4.50;;
8098;SDS011;4092;47.876;9.372;2023-06-10T00:12:12;7.63;;;5.70;;
8098;SDS011;4092;47.876;9.372;2023-06-10T00:14:42;8.40;;;4.50;;
8098;SDS011;4092;47.876;9.372;2023-06-10T00:17:08;5.83;;;4.60;;
8098;SDS011;4092;47.876;9.372;2023-06-10T00:19:36;6.10;;;4.80;;
8098;SDS011;4092;47.876;9.372;2023-06-10T00:22:06;5.17;;;4.60;;
8098;SDS011;4092;47.876;9.372;2023-06-10T00:24:35;12.83;;;4.83;;
8098;SDS011;4092;47.876;9.372;2023-06-10T00:27:02;6.10;;;4.30;;
8098;SDS011;4092;47.876;9.372;2023-06-10T00:29:32;7.20;;;5.17;;
8098;SDS011;4092;47.876;9.372;2023-06-10T00:31:59;6.37;;;4.50;;
8098;SDS011;4092;47.876;9.372;2023-06-10T00:34:26;7.63;;;5.03;;
8098;SDS011;4092;47.876;9.372;2023-06-10T00:36:57;8.50;;;4.60;;
8098;SDS011;4092;47.876;9.372;2023-06-10T00:39:24;7.40;;;5.03;;
8098;SDS011;4092;47.876;9.372;2023-06-10T00:41:52;11.80;;;4.97;;
8098;SDS011;4092;47.876;9.372;2023-06-10T00:44:19;5.30;;;4.80;;
8098;SDS011;4092;47.876;9.372;2023-06-10T00:46:46;5.20;;;4.40;;
8098;SDS011;4092;47.876;9.372;2023-06-10T00:49:16;6.43;;;4.73;;
8098;SDS011;4092;47.876;9.372;2023-06-10T00:51:46;5.67;;;5.10;;
8098;SDS011;4092;47.876;9.372;2023-06-10T00:54:13;6.23;;;4.53;;
8098;SDS011;4092;47.876;9.372;2023-06-10T00:56:40;8.67;;;5.00;;
8098;SDS011;4092;47.876;9.372;2023-06-10T00:59:11;7.80;;;4.87;;
8098;SDS011;4092;47.876;9.372;2023-06-10T01:01:39;7.67;;;5.07;;
8098;SDS011;4092;47.876;9.372;2023-06-10T01:04:08;7.37;;;4.67;;
8098;SDS011;4092;47.876;9.372;2023-06-10T01:06:39;5.60;;;4.97;;
8098;SDS011;4092;47.876;9.372;2023-06-10T01:09:18;7.90;;;4.60;;
8098;SDS011;4092;47.876;9.372;2023-06-10T01:11:52;6.37;;;4.90;;
8098;SDS011;4092;47.876;9.372;2023-06-10T01:14:26;8.17;;;4.47;;
8098;SDS011;4092;47.876;9.372;2023-06-10T01:16:54;6.30;;;5.10;;
8098;SDS011;4092;47.876;9.372;2023-06-10T01:19:22;6.27;;;5.10;;
8098;SDS011;4092;47.876;9.372;2023-06-10T01:21:52;7.30;;;5.70;;
8098;SDS011;4092;47.876;9.372;2023-06-10T01:24:20;8.83;;;6.13;;
8098;SDS011;4092;47.876;9.372;2023-06-10T01:26:48;5.90;;;4.87;;
8098;SDS011;4092;47.876;9.372;2023-06-10T01:29:17;8.40;;;4.80;;
8098;SDS011;4092;47.876;9.372;2023-06-10T01:31:48;14.37;;;5.27;;
8098;SDS011;4092;47.876;9.372;2023-06-10T01:34:18;6.90;;;5.47;;
8098;SDS011;4092;47.876;9.372;2023-06-10T01:36:51;10.30;;;6.03;;
8098;SDS011;4092;47.876;9.372;2023-06-10T01:39:22;8.60;;;5.53;;
8098;SDS011;4092;47.876;9.372;2023-06-10T01:41:52;7.27;;;4.93;;
8098;SDS011;4092;47.876;9.372;2023-06-10T01:44:20;5.70;;;5.10;;
8098;SDS011;4092;47.876;9.372;2023-06-10T01:46:48;7.23;;;5.90;;
8098;SDS011;4092;47.876;9.372;2023-06-10T01:49:15;8.47;;;5.33;;
8098;SDS011;4092;47.876;9.372;2023-06-10T01:51:42;7.87;;;5.97;;
8098;SDS011;4092;47.876;9.372;2023-06-10T01:54:11;10.73;;;6.10;;
8098;SDS011;4092;47.876;9.372;2023-06-10T01:56:38;8.93;;;5.93;;
8098;SDS011;4092;47.876;9.372;2023-06-10T01:59:05;5.67;;;4.60;;
8098;SDS011;4092;47.876;9.372;2023-06-10T02:01:33;8.57;;;5.47;;
8098;SDS011;4092;47.876;9.372;2023-06-10T02:04:09;7.20;;;6.20;;
8098;SDS011;4092;47.876;9.372;2023-06-10T02:06:36;6.97;;;4.93;;
8098;SDS011;4092;47.876;9.372;2023-06-10T02:09:03;9.83;;;5.87;;
8098;SDS011;4092;47.876;9.372;2023-06-10T02:11:33;6.57;;;5.50;;
8098;SDS011;4092;47.876;9.372;2023-06-10T02:14:00;8.47;;;5.37;;
8098;SDS011;4092;47.876;9.372;2023-06-10T02:16:27;6.97;;;5.27;;
8098;SDS011;4092;47.876;9.372;2023-06-10T02:18:54;5.87;;;5.27;;
8098;SDS011;4092;47.876;9.372;2023-06-10T02:21:21;7.23;;;5.37;;
8098;SDS011;4092;47.876;9.372;2023-06-10T02:23:49;6.70;;;5.60;;
8098;SDS011;4092;47.876;9.372;2023-06-10T02:26:16;8.27;;;4.93;;
8098;SDS011;4092;47.876;9.372;2023-06-10T02:28:44;6.40;;;4.70;;
8098;SDS011;4092;47.876;9.372;2023-06-10T02:31:12;9.80;;;6.37;;
8098;SDS011;4092;47.876;9.372;2023-06-10T02:33:43;8.83;;;5.77;;
8098;SDS011;4092;47.876;9.372;2023-06-10T02:36:11;7.40;;;5.20;;
8098;SDS011;4092;47.876;9.372;2023-06-10T02:38:40;14.00;;;6.93;;
8098;SDS011;4092;47.876;9.372;2023-06-10T02:41:07;7.37;;;6.40;;
8098;SDS011;4092;47.876;9.372;2023-06-10T02:43:37;7.20;;;5.83;;
8098;SDS011;4092;47.876;9.372;2023-06-10T02:46:05;8.47;;;5.70;;
8098;SDS011;4092;47.876;9.372;2023-06-10T02:48:38;7.77;;;6.00;;
8098;SDS011;4092;47.876;9.372;2023-06-10T02:51:07;7.30;;;5.47;;
8098;SDS011;4092;47.876;9.372;2023-06-10T02:53:34;7.50;;;5.53;;
8098;SDS011;4092;47.876;9.372;2023-06-10T02:56:01;11.87;;;6.07;;
8098;SDS011;4092;47.876;9.372;2023-06-10T02:58:28;10.77;;;6.70;;
8098;SDS011;4092;47.876;9.372;2023-06-10T03:00:55;9.30;;;6.87;;
8098;SDS011;4092;47.876;9.372;2023-06-10T03:03:24;11.40;;;6.27;;
8098;SDS011;4092;47.876;9.372;2023-06-10T03:05:52;6.27;;;5.10;;
8098;SDS011;4092;47.876;9.372;2023-06-10T03:08:21;7.47;;;5.57;;
8098;SDS011;4092;47.876;9.372;2023-06-10T03:10:48;7.80;;;5.83;;
8098;SDS011;4092;47.876;9.372;2023-06-10T03:13:17;8.47;;;5.83;;
8098;SDS011;4092;47.876;9.372;2023-06-10T03:15:44;9.67;;;6.53;;
8098;SDS011;4092;47.876;9.372;2023-06-10T03:18:11;8.27;;;5.33;;
8098;SDS011;4092;47.876;9.372;2023-06-10T03:20:40;6.50;;;5.20;;
8098;SDS011;4092;47.876;9.372;2023-06-10T03:23:07;7.67;;;5.20;;
8098;SDS011;4092;47.876;9.372;2023-06-10T03:25:34;7.33;;;5.37;;
8098;SDS011;4092;47.876;9.372;2023-06-10T03:28:02;7.10;;;5.07;;
8098;SDS011;4092;47.876;9.372;2023-06-10T03:30:29;7.90;;;4.90;;
8098;SDS011;4092;47.876;9.372;2023-06-10T03:32:56;7.40;;;5.50;;
8098;SDS011;4092;47.876;9.372;2023-06-10T03:35:23;7.70;;;5.07;;
8098;SDS011;4092;47.876;9.372;2023-06-10T03:37:51;8.63;;;6.97;;
8098;SDS011;4092;47.876;9.372;2023-06-10T03:40:18;5.67;;;4.07;;
8098;SDS011;4092;47.876;9.372;2023-06-10T03:42:45;8.63;;;5.63;;
8098;SDS011;4092;47.876;9.372;2023-06-10T03:45:12;10.87;;;5.60;;
8098;SDS011;4092;47.876;9.372;2023-06-10T03:47:39;7.17;;;5.60;;
8098;SDS011;4092;47.876;9.372;2023-06-10T03:50:09;6.63;;;4.70;;
8098;SDS011;4092;47.876;9.372;2023-06-10T03:52:37;6.50;;;4.73;;
8098;SDS011;4092;47.876;9.372;2023-06-10T03:55:06;7.20;;;5.53;;
8098;SDS011;4092;47.876;9.372;2023-06-10T03:57:33;7.73;;;5.17;;
8098;SDS011;4092;47.876;9.372;2023-06-10T04:00:01;10.93;;;6.07;;
8098;SDS011;4092;47.876;9.372;2023-06-10T04:02:33;7.17;;;5.37;;
8098;SDS011;4092;47.876;9.372;2023-06-10T04:05:01;9.10;;;5.17;;
8098;SDS011;4092;47.876;9.372;2023-06-10T04:07:32;11.00;;;5.07;;
8098;SDS011;4092;47.876;9.372;2023-06-10T04:09:59;7.40;;;5.20;;
8098;SDS011;4092;47.876;9.372;2023-06-10T04:12:28;6.90;;;4.80;;
8098;SDS011;4092;47.876;9.372;2023-06-10T04:14:55;7.23;;;4.97;;
8098;SDS011;4092;47.876;9.372;2023-06-10T04:17:25;5.57;;;4.60;;
8098;SDS011;4092;47.876;9.372;2023-06-10T04:19:52;9.27;;;6.03;;
8098;SDS011;4092;47.876;9.372;2023-06-10T04:22:22;7.53;;;4.80;;
8098;SDS011;4092;47.876;9.372;2023-06-10T04:24:49;7.40;;;4.33;;
8098;SDS011;4092;47.876;9.372;2023-06-10T04:27:16;7.73;;;5.33;;
8098;SDS011;4092;47.876;9.372;2023-06-10T04:29:44;6.43;;;4.30;;
8098;SDS011;4092;47.876;9.372;2023-06-10T04:32:11;5.57;;;4.63;;
8098;SDS011;4092;47.876;9.372;2023-06-10T04:34:39;7.93;;;4.80;;
8098;SDS011;4092;47.876;9.372;2023-06-10T04:37:07;5.90;;;5.10;;
8098;SDS011;4092;47.876;9.372;2023-06-10T04:39:34;7.80;;;4.80;;
8098;SDS011;4092;47.876;9.372;2023-06-10T04:42:01;9.43;;;5.37;;
8098;SDS011;4092;47.876;9.372;2023-06-10T04:44:30;7.50;;;5.20;;
8098;SDS011;4092;47.876;9.372;2023-06-10T04:46:58;6.93;;;4.90;;
8098;SDS011;4092;47.876;9.372;2023-06-10T04:49:26;6.37;;;4.47;;
8098;SDS011;4092;47.876;9.372;2023-06-10T04:51:54;9.40;;;4.90;;
8098;SDS011;4092;47.876;9.372;2023-06-10T04:54:21;9.37;;;5.47;;
8098;SDS011;4092;47.876;9.372;2023-06-10T04:56:48;7.13;;;4.90;;
8098;SDS011;4092;47.876;9.372;2023-06-10T04:59:14;8.50;;;4.97;;
8098;SDS011;4092;47.876;9.372;2023-06-10T05:01:41;7.23;;;4.67;;
8098;SDS011;4092;47.876;9.372;2023-06-10T05:04:10;7.60;;;4.80;;
8098;SDS011;4092;47.876;9.372;2023-06-10T05:06:37;7.87;;;5.00;;
8098;SDS011;4092;47.876;9.372;2023-06-10T05:09:04;8.10;;;5.20;;
8098;SDS011;4092;47.876;9.372;2023-06-10T05:11:31;8.87;;;5.53;;
8098;SDS011;4092;47.876;9.372;2023-06-10T05:13:58;9.20;;;5.10;;
8098;SDS011;4092;47.876;9.372;2023-06-10T05:16:25;9.40;;;5.33;;
8098;SDS011;4092;47.876;9.372;2023-06-10T05:18:52;8.10;;;4.80;;
8098;SDS011;4092;47.876;9.372;2023-06-10T05:21:21;7.87;;;4.33;;
8098;SDS011;4092;47.876;9.372;2023-06-10T05:23:48;8.17;;;5.10;;
8098;SDS011;4092;47.876;9.372;2023-06-10T05:26:15;8.57;;;5.20;;
8098;SDS011;4092;47.876;9.372;2023-06-10T05:28:42;7.70;;;5.30;;
8098;SDS011;4092;47.876;9.372;2023-06-10T05:31:09;14.10;;;5.70;;
8098;SDS011;4092;47.876;9.372;2023-06-10T05:33:36;6.90;;;4.50;;
8098;SDS011;4092;47.876;9.372;2023-06-10T05:36:04;9.00;;;5.57;;
8098;SDS011;4092;47.876;9.372;2023-06-10T05:38:33;7.87;;;5.53;;
8098;SDS011;4092;47.876;9.372;2023-06-10T05:41:01;6.27;;;5.40;;
8098;SDS011;4092;47.876;9.372;2023-06-10T05:43:28;6.60;;;5.20;;
8098;SDS011;4092;47.876;9.372;2023-06-10T05:45:55;6.47;;;4.87;;
8098;SDS011;4092;47.876;9.372;2023-06-10T05:48:22;8.43;;;5.63;;
8098;SDS011;4092;47.876;9.372;2023-06-10T05:50:52;9.67;;;4.87;;
8098;SDS011;4092;47.876;9.372;2023-06-10T05:53:18;6.47;;;5.23;;
8098;SDS011;4092;47.876;9.372;2023-06-10T05:55:47;7.00;;;4.80;;
8098;SDS011;4092;47.876;9.372;2023-06-10T05:58:14;7.20;;;4.37;;
8098;SDS011;4092;47.876;9.372;2023-06-10T06:00:41;7.67;;;5.50;;
8098;SDS011;4092;47.876;9.372;2023-06-10T06:03:10;7.07;;;5.03;;
8098;SDS011;4092;47.876;9.372;2023-06-10T06:05:38;5.87;;;5.17;;
8098;SDS011;4092;47.876;9.372;2023-06-10T06:08:05;7.47;;;5.00;;
8098;SDS011;4092;47.876;9.372;2023-06-10T06:10:32;6.60;;;4.63;;
8098;SDS011;4092;47.876;9.372;2023-06-10T06:13:00;8.43;;;6.07;;
8098;SDS011;4092;47.876;9.372;2023-06-10T06:15:28;6.40;;;5.30;;
8098;SDS011;4092;47.876;9.372;2023-06-10T06:17:55;6.03;;;5.07;;
8098;SDS011;4092;47.876;9.372;2023-06-10T06:20:22;12.50;;;6.03;;
8098;SDS011;4092;47.876;9.372;2023-06-10T06:22:52;9.70;;;7.47;;
8098;SDS011;4092;47.876;9.372;2023-06-10T06:25:19;7.87;;;5.80;;
8098;SDS011;4092;47.876;9.372;2023-06-10T06:27:46;6.17;;;4.97;;
8098;SDS011;4092;47.876;9.372;2023-06-10T06:30:14;8.93;;;5.93;;
8098;SDS011;4092;47.876;9.372;2023-06-10T06:32:41;6.10;;;4.60;;
8098;SDS011;4092;47.876;9.372;2023-06-10T06:35:08;7.97;;;5.47;;
8098;SDS011;4092;47.876;9.372;2023-06-10T06:37:35;7.53;;;4.63;;
8098;SDS011;4092;47.876;9.372;2023-06-10T06:40:02;7.17;;;5.87;;
8098;SDS011;4092;47.876;9.372;2023-06-10T06:42:30;6.70;;;5.07;;
8098;SDS011;4092;47.876;9.372;2023-06-10T06:44:57;6.23;;;5.13;;
8098;SDS011;4092;47.876;9.372;2023-06-10T06:47:25;8.43;;;4.80;;
8098;SDS011;4092;47.876;9.372;2023-06-10T06:49:52;7.80;;;5.47;;
8098;SDS011;4092;47.876;9.372;2023-06-10T06:52:19;7.40;;;5.60;;
8098;SDS011;4092;47.876;9.372;2023-06-10T06:54:47;7.40;;;5.57;;
8098;SDS011;4092;47.876;9.372;2023-06-10T06:57:14;6.93;;;6.23;;
8098;SDS011;4092;47.876;9.372;2023-06-10T06:59:41;6.70;;;5.40;;
8098;SDS011;4092;47.876;9.372;2023-06-10T07:02:08;15.53;;;5.90;;
8098;SDS011;4092;47.876;9.372;2023-06-10T07:04:36;7.07;;;5.33;;
8098;SDS011;4092;47.876;9.372;2023-06-10T07:07:06;6.90;;;5.10;;
8098;SDS011;4092;47.876;9.372;2023-06-10T07:09:33;7.10;;;5.27;;
8098;SDS011;4092;47.876;9.372;2023-06-10T07:12:01;13.87;;;4.93;;
8098;SDS011;4092;47.876;9.372;2023-06-10T07:14:28;9.60;;;6.30;;
8098;SDS011;4092;47.876;9.372;2023-06-10T07:16:55;6.03;;;4.83;;
8098;SDS011;4092;47.876;9.372;2023-06-10T07:19:22;12.63;;;6.13;;
8098;SDS011;4092;47.876;9.372;2023-06-10T07:21:50;7.60;;;5.97;;
8098;SDS011;4092;47.876;9.372;2023-06-10T07:24:17;8.87;;;5.10;;
8098;SDS011;4092;47.876;9.372;2023-06-10T07:26:45;11.17;;;6.40;;
8098;SDS011;4092;47.876;9.372;2023-06-10T07:29:12;6.63;;;4.40;;
8098;SDS011;4092;47.876;9.372;2023-06-10T07:31:39;8.20;;;5.13;;
8098;SDS011;4092;47.876;9.372;2023-06-10T07:34:07;8.43;;;5.20;;
8098;SDS011;4092;47.876;9.372;2023-06-10T07:36:34;7.00;;;5.40;;
8098;SDS011;4092;47.876;9.372;2023-06-10T07:39:03;8.73;;;6.00;;
8098;SDS011;4092;47.876;9.372;2023-06-10T07:41:32;7.17;;;4.70;;
8098;SDS011;4092;47.876;9.372;2023-06-10T07:43:59;11.80;;;5.87;;
8098;SDS011;4092;47.876;9.372;2023-06-10T07:46:27;6.97;;;5.07;;
8098;SDS011;4092;47.876;9.372;2023-06-10T07:48:54;7.03;;;5.17;;
8098;SDS011;4092;47.876;9.372;2023-06-10T07:51:21;9.40;;;4.70;;
8098;SDS011;4092;47.876;9.372;2023-06-10T07:53:48;6.53;;;4.73;;
8098;SDS011;4092;47.876;9.372;2023-06-10T07:56:17;8.90;;;5.13;;
8098;SDS011;4092;47.876;9.372;2023-06-10T07:58:45;5.00;;;3.60;;
8098;SDS011;4092;47.876;9.372;2023-06-10T08:01:12;7.00;;;4.97;;
8098;SDS011;4092;47.876;9.372;2023-06-10T08:03:39;5.17;;;4.50;;
8098;SDS011;4092;47.876;9.372;2023-06-10T08:06:06;8.80;;;4.70;;
8098;SDS011;4092;47.876;9.372;2023-06-10T08:08:33;7.13;;;4.97;;
8098;SDS011;4092;47.876;9.372;2023-06-10T08:11:05;7.63;;;4.80;;
8098;SDS011;4092;47.876;9.372;2023-06-10T08:13:33;6.57;;;4.60;;
8098;SDS011;4092;47.876;9.372;2023-06-10T08:16:00;6.90;;;4.37;;
8098;SDS011;4092;47.876;9.372;2023-06-10T08:18:28;7.50;;;4.83;;
8098;SDS011;4092;47.876;9.372;2023-06-10T08:20:56;6.73;;;5.07;;
8098;SDS011;4092;47.876;9.372;2023-06-10T08:23:23;7.07;;;4.10;;
8098;SDS011;4092;47.876;9.372;2023-06-10T08:25:50;6.60;;;4.60;;
8098;SDS011;4092;47.876;9.372;2023-06-10T08:28:17;7.23;;;4.30;;
8098;SDS011;4092;47.876;9.372;2023-06-10T08:30:46;5.30;;;4.80;;
8098;SDS011;4092;47.876;9.372;2023-06-10T08:33:13;5.13;;;4.17;;
8098;SDS011;4092;47.876;9.372;2023-06-10T08:35:40;5.80;;;4.30;;
8098;SDS011;4092;47.876;9.372;2023-06-10T08:38:08;5.40;;;3.43;;
8098;SDS011;4092;47.876;9.372;2023-06-10T08:40:35;5.40;;;3.47;;
8098;SDS011;4092;47.876;9.372;2023-06-10T08:43:05;5.57;;;4.40;;
8098;SDS011;4092;47.876;9.372;2023-06-10T08:45:34;6.67;;;4.30;;
8098;SDS011;4092;47.876;9.372;2023-06-10T08:48:04;5.50;;;4.53;;
8098;SDS011;4092;47.876;9.372;2023-06-10T08:50:33;9.83;;;4.27;;
8098;SDS011;4092;47.876;9.372;2023-06-10T08:53:02;6.27;;;4.70;;
8098;SDS011;4092;47.876;9.372;2023-06-10T08:55:32;5.93;;;4.70;;
8098;SDS011;4092;47.876;9.372;2023-06-10T08:58:01;6.10;;;4.40;;
8098;SDS011;4092;47.876;9.372;2023-06-10T09:00:29;5.03;;;4.03;;
8098;SDS011;4092;47.876;9.372;2023-06-10T09:02:57;5.90;;;4.10;;
8098;SDS011;4092;47.876;9.372;2023-06-10T09:05:30;5.67;;;4.40;;
8098;SDS011;4092;47.876;9.372;2023-06-10T09:08:02;7.20;;;4.57;;
8098;SDS011;4092;47.876;9.372;2023-06-10T09:10:29;4.63;;;3.80;;
8098;SDS011;4092;47.876;9.372;2023-06-10T09:12:59;6.17;;;4.37;;
8098;SDS011;4092;47.876;9.372;2023-06-10T09:15:26;6.33;;;4.67;;
8098;SDS011;4092;47.876;9.372;2023-06-10T09:17:53;6.00;;;4.07;;
8098;SDS011;4092;47.876;9.372;2023-06-10T09:20:20;4.60;;;4.03;;
8098;SDS011;4092;47.876;9.372;2023-06-10T09:22:48;7.40;;;3.87;;
8098;SDS011;4092;47.876;9.372;2023-06-10T09:25:16;5.63;;;3.83;;
8098;SDS011;4092;47.876;9.372;2023-06-10T09:27:46;6.37;;;3.00;;
8098;SDS011;4092;47.876;9.372;2023-06-10T09:30:25;4.97;;;3.37;;
8098;SDS011;4092;47.876;9.372;2023-06-10T09:32:53;3.93;;;3.03;;
8098;SDS011;4092;47.876;9.372;2023-06-10T09:35:22;3.90;;;3.10;;
8098;SDS011;4092;47.876;9.372;2023-06-10T09:37:51;5.53;;;3.83;;
8098;SDS011;4092;47.876;9.372;2023-06-10T09:40:19;4.50;;;3.87;;
8098;SDS011;4092;47.876;9.372;2023-06-10T09:42:46;6.40;;;3.90;;
8098;SDS011;4092;47.876;9.372;2023-06-10T09:45:20;6.37;;;3.70;;
8098;SDS011;4092;47.876;9.372;2023-06-10T09:47:51;5.40;;;3.40;;
8098;SDS011;4092;47.876;9.372;2023-06-10T09:50:18;7.00;;;4.20;;
8098;SDS011;4092;47.876;9.372;2023-06-10T09:52:46;4.90;;;4.20;;
8098;SDS011;4092;47.876;9.372;2023-06-10T09:55:15;4.50;;;3.70;;
8098;SDS011;4092;47.876;9.372;2023-06-10T09:57:43;5.17;;;3.30;;
8098;SDS011;4092;47.876;9.372;2023-06-10T10:00:15;5.83;;;3.37;;
8098;SDS011;4092;47.876;9.372;2023-06-10T10:02:46;5.77;;;3.80;;
8098;SDS011;4092;47.876;9.372;2023-06-10T10:05:15;4.97;;;3.27;;
8098;SDS011;4092;47.876;9.372;2023-06-10T10:07:44;4.23;;;3.63;;
8098;SDS011;4092;47.876;9.372;2023-06-10T10:10:11;4.90;;;3.77;;
8098;SDS011;4092;47.876;9.372;2023-06-10T10:12:43;4.90;;;3.20;;
8098;SDS011;4092;47.876;9.372;2023-06-10T10:15:15;6.03;;;3.10;;
8098;SDS011;4092;47.876;9.372;2023-06-10T10:17:44;11.43;;;3.93;;
8098;SDS011;4092;47.876;9.372;2023-06-10T10:20:19;3.63;;;3.30;;
8098;SDS011;4092;47.876;9.372;2023-06-10T10:22:51;4.20;;;3.07;;
8098;SDS011;4092;47.876;9.372;2023-06-10T10:25:23;4.23;;;3.50;;
8098;SDS011;4092;47.876;9.372;2023-06-10T10:27:54;5.07;;;3.80;;
8098;SDS011;4092;47.876;9.372;2023-06-10T10:30:25;4.30;;;3.33;;
8098;SDS011;4092;47.876;9.372;2023-06-10T10:32:56;8.50;;;3.40;;
8098;SDS011;4092;47.876;9.372;2023-06-10T10:35:24;4.10;;;3.50;;
8098;SDS011;4092;47.876;9.372;2023-06-10T10:37:52;5.73;;;3.73;;
8098;SDS011;4092;47.876;9.372;2023-06-10T10:40:20;3.13;;;2.83;;
8098;SDS011;4092;47.876;9.372;2023-06-10T10:42:49;3.60;;;3.20;;
8098;SDS011;4092;47.876;9.372;2023-06-10T10:45:19;6.77;;;4.80;;
8098;SDS011;4092;47.876;9.372;2023-06-10T10:47:51;6.00;;;3.27;;
8098;SDS011;4092;47.876;9.372;2023-06-10T10:50:20;4.50;;;3.10;;
8098;SDS011;4092;47.876;9.372;2023-06-10T10:52:53;4.33;;;3.03;;
8098;SDS011;4092;47.876;9.372;2023-06-10T10:55:22;5.43;;;4.27;;
8098;SDS011;4092;47.876;9.372;2023-06-10T10:57:54;13.63;;;3.87;;
8098;SDS011;4092;47.876;9.372;2023-06-10T11:00:29;4.00;;;2.97;;
8098;SDS011;4092;47.876;9.372;2023-06-10T11:03:04;3.43;;;3.00;;
8098;SDS011;4092;47.876;9.372;2023-06-10T11:05:36;4.93;;;3.30;;
8098;SDS011;4092;47.876;9.372;2023-06-10T11:08:07;4.70;;;3.80;;
8098;SDS011;4092;47.876;9.372;2023-06-10T11:10:35;5.40;;;3.57;;
8098;SDS011;4092;47.876;9.372;2023-06-10T11:13:06;5.13;;;4.07;;
8098;SDS011;4092;47.876;9.372;2023-06-10T11:15:39;4.77;;;3.50;;
8098;SDS011;4092;47.876;9.372;2023-06-10T11:18:12;5.50;;;4.30;;
8098;SDS011;4092;47.876;9.372;2023-06-10T11:20:43;5.67;;;3.87;;
8098;SDS011;4092;47.876;9.372;2023-06-10T11:23:30;5.33;;;3.30;;
8098;SDS011;4092;47.876;9.372;2023-06-10T11:26:30;6.43;;;3.97;;
8098;SDS011;4092;47.876;9.372;2023-06-10T11:29:11;5.00;;;3.53;;
8098;SDS011;4092;47.876;9.372;2023-06-10T11:31:44;4.53;;;3.53;;
8098;SDS011;4092;47.876;9.372;2023-06-10T11:34:13;5.83;;;4.57;;
8098;SDS011;4092;47.876;9.372;2023-06-10T11:36:41;4.37;;;2.97;;
8098;SDS011;4092;47.876;9.372;2023-06-10T11:39:12;7.37;;;3.80;;
8098;SDS011;4092;47.876;9.372;2023-06-10T11:41:40;18.43;;;3.67;;
8098;SDS011;4092;47.876;9.372;2023-06-10T11:44:07;11.80;;;3.57;;
8098;SDS011;4092;47.876;9.372;2023-06-10T11:46:35;3.40;;;3.07;;
8098;SDS011;4092;47.876;9.372;2023-06-10T11:49:04;4.83;;;3.63;;
8098;SDS011;4092;47.876;9.372;2023-06-10T11:51:32;7.63;;;3.80;;
8098;SDS011;4092;47.876;9.372;2023-06-10T11:54:01;3.80;;;3.10;;
8098;SDS011;4092;47.876;9.372;2023-06-10T11:56:29;4.67;;;3.13;;
8098;SDS011;4092;47.876;9.372;2023-06-10T11:58:58;3.57;;;3.20;;
8098;SDS011;4092;47.876;9.372;2023-06-10T12:01:29;4.80;;;3.93;;
8098;SDS011;4092;47.876;9.372;2023-06-10T12:03:58;6.67;;;3.27;;
8098;SDS011;4092;47.876;9.372;2023-06-10T12:06:29;4.40;;;2.93;;
8098;SDS011;4092;47.876;9.372;2023-06-10T12:09:05;3.90;;;3.20;;
8098;SDS011;4092;47.876;9.372;2023-06-10T12:11:32;3.30;;;2.90;;
8098;SDS011;4092;47.876;9.372;2023-06-10T12:14:01;4.97;;;3.23;;
8098;SDS011;4092;47.876;9.372;2023-06-10T12:16:29;2.87;;;2.57;;
8098;SDS011;4092;47.876;9.372;2023-06-10T12:19:00;4.77;;;3.10;;
8098;SDS011;4092;47.876;9.372;2023-06-10T12:21:31;3.30;;;2.90;;
8098;SDS011;4092;47.876;9.372;2023-06-10T12:24:03;3.63;;;2.83;;
8098;SDS011;4092;47.876;9.372;2023-06-10T12:26:41;4.47;;;2.47;;
8098;SDS011;4092;47.876;9.372;2023-06-10T12:29:16;3.43;;;2.80;;
8098;SDS011;4092;47.876;9.372;2023-06-10T12:31:52;3.17;;;2.43;;
8098;SDS011;4092;47.876;9.372;2023-06-10T12:34:19;3.00;;;2.13;;
8098;SDS011;4092;47.876;9.372;2023-06-10T12:36:55;3.17;;;2.20;;
8098;SDS011;4092;47.876;9.372;2023-06-10T12:39:22;1.93;;;1.77;;
8098;SDS011;4092;47.876;9.372;2023-06-10T12:41:50;2.67;;;2.47;;
8098;SDS011;4092;47.876;9.372;2023-06-10T12:44:23;2.80;;;2.03;;
8098;SDS011;4092;47.876;9.372;2023-06-10T12:46:55;2.97;;;2.50;;
8098;SDS011;4092;47.876;9.372;2023-06-10T12:49:23;3.30;;;2.30;;
8098;SDS011;4092;47.876;9.372;2023-06-10T12:51:51;3.27;;;2.00;;
8098;SDS011;4092;47.876;9.372;2023-06-10T12:54:20;1.90;;;1.60;;
8098;SDS011;4092;47.876;9.372;2023-06-10T12:56:48;1.77;;;1.63;;
8098;SDS011;4092;47.876;9.372;2023-06-10T12:59:16;2.10;;;1.80;;
8098;SDS011;4092;47.876;9.372;2023-06-10T13:01:44;5.83;;;2.13;;
8098;SDS011;4092;47.876;9.372;2023-06-10T13:04:15;3.17;;;1.60;;
8098;SDS011;4092;47.876;9.372;2023-06-10T13:06:44;2.23;;;1.63;;
8098;SDS011;4092;47.876;9.372;2023-06-10T13:09:12;3.27;;;2.53;;
8098;SDS011;4092;47.876;9.372;2023-06-10T13:11:40;4.73;;;1.90;;
8098;SDS011;4092;47.876;9.372;2023-06-10T13:14:08;1.93;;;1.53;;
8098;SDS011;4092;47.876;9.372;2023-06-10T13:16:37;2.90;;;1.40;;
8098;SDS011;4092;47.876;9.372;2023-06-10T13:19:05;2.43;;;1.73;;
8098;SDS011;4092;47.876;9.372;2023-06-10T13:21:32;2.60;;;2.20;;
8098;SDS011;4092;47.876;9.372;2023-06-10T13:24:00;2.63;;;2.00;;
8098;SDS011;4092;47.876;9.372;2023-06-10T13:26:28;2.57;;;2.00;;
8098;SDS011;4092;47.876;9.372;2023-06-10T13:28:56;2.90;;;2.00;;
8098;SDS011;4092;47.876;9.372;2023-06-10T13:31:24;2.40;;;1.53;;
8098;SDS011;4092;47.876;9.372;2023-06-10T13:33:51;2.23;;;1.90;;
8098;SDS011;4092;47.876;9.372;2023-06-10T13:36:18;2.30;;;1.60;;
8098;SDS011;4092;47.876;9.372;2023-06-10T13:38:45;2.80;;;2.10;;
8098;SDS011;4092;47.876;9.372;2023-06-10T13:41:13;2.20;;;1.70;;
8098;SDS011;4092;47.876;9.372;2023-06-10T13:43:40;2.73;;;2.00;;
8098;SDS011;4092;47.876;9.372;2023-06-10T13:46:09;2.70;;;1.87;;
8098;SDS011;4092;47.876;9.372;2023-06-10T13:48:36;4.17;;;2.20;;
8098;SDS011;4092;47.876;9.372;2023-06-10T13:51:04;2.43;;;2.20;;
8098;SDS011;4092;47.876;9.372;2023-06-10T13:53:32;2.37;;;2.17;;
8098;SDS011;4092;47.876;9.372;2023-06-10T13:55:59;1.80;;;1.60;;
8098;SDS011;4092;47.876;9.372;2023-06-10T13:58:26;2.37;;;1.60;;
8098;SDS011;4092;47.876;9.372;2023-06-10T14:00:54;2.53;;;1.57;;
8098;SDS011;4092;47.876;9.372;2023-06-10T14:03:23;2.57;;;2.07;;
8098;SDS011;4092;47.876;9.372;2023-06-10T14:05:50;2.43;;;1.80;;
8098;SDS011;4092;47.876;9.372;2023-06-10T14:08:18;2.10;;;1.67;;
8098;SDS011;4092;47.876;9.372;2023-06-10T14:10:45;2.17;;;1.77;;
8098;SDS011;4092;47.876;9.372;2023-06-10T14:13:13;4.53;;;2.57;;
8098;SDS011;4092;47.876;9.372;2023-06-10T14:15:40;2.07;;;1.83;;
8098;SDS011;4092;47.876;9.372;2023-06-10T14:18:07;2.40;;;1.53;;
8098;SDS011;4092;47.876;9.372;2023-06-10T14:20:35;2.07;;;1.87;;
8098;SDS011;4092;47.876;9.372;2023-06-10T14:23:03;3.63;;;2.20;;
8098;SDS011;4092;47.876;9.372;2023-06-10T14:25:30;2.13;;;1.60;;
8098;SDS011;4092;47.876;9.372;2023-06-10T14:27:57;3.00;;;1.80;;
8098;SDS011;4092;47.876;9.372;2023-06-10T14:30:26;2.20;;;1.90;;
8098;SDS011;4092;47.876;9.372;2023-06-10T14:32:53;3.50;;;2.70;;
8098;SDS011;4092;47.876;9.372;2023-06-10T14:35:20;3.43;;;2.30;;
8098;SDS011;4092;47.876;9.372;2023-06-10T14:37:49;3.63;;;2.63;;
8098;SDS011;4092;47.876;9.372;2023-06-10T14:40:16;2.10;;;1.90;;
8098;SDS011;4092;47.876;9.372;2023-06-10T14:42:43;4.57;;;3.20;;
8098;SDS011;4092;47.876;9.372;2023-06-10T14:45:11;3.23;;;2.83;;
8098;SDS011;4092;47.876;9.372;2023-06-10T14:47:38;2.60;;;1.97;;
8098;SDS011;4092;47.876;9.372;2023-06-10T14:50:06;2.73;;;2.30;;
8098;SDS011;4092;47.876;9.372;2023-06-10T14:52:34;2.80;;;2.50;;
8098;SDS011;4092;47.876;9.372;2023-06-10T14:55:02;2.60;;;2.13;;
8098;SDS011;4092;47.876;9.372;2023-06-10T14:57:30;3.33;;;2.17;;
8098;SDS011;4092;47.876;9.372;2023-06-10T14:59:57;3.17;;;2.40;;
8098;SDS011;4092;47.876;9.372;2023-06-10T15:02:25;2.17;;;2.00;;
8098;SDS011;4092;47.876;9.372;2023-06-10T15:04:52;3.10;;;2.03;;
8098;SDS011;4092;47.876;9.372;2023-06-10T15:07:19;2.90;;;2.57;;
8098;SDS011;4092;47.876;9.372;2023-06-10T15:09:46;2.60;;;1.93;;
8098;SDS011;4092;47.876;9.372;2023-06-10T15:12:15;2.90;;;1.80;;
8098;SDS011;4092;47.876;9.372;2023-06-10T15:14:42;5.60;;;2.87;;
8098;SDS011;4092;47.876;9.372;2023-06-10T15:17:09;3.17;;;2.63;;
8098;SDS011;4092;47.876;9.372;2023-06-10T15:19:36;2.70;;;2.23;;
8098;SDS011;4092;47.876;9.372;2023-06-10T15:22:04;2.23;;;1.83;;
8098;SDS011;4092;47.876;9.372;2023-06-10T15:24:31;2.10;;;1.70;;